createdAt,value
2018-09-21T00:02:14.131Z,5.53
2018-09-21T00:04:44.385Z,5.27
2018-09-21T00:07:15.043Z,4.90
2018-09-21T00:09:45.469Z,5.17
2018-09-21T00:12:15.506Z,5.93
2018-09-21T00:14:45.990Z,5.20
2018-09-21T00:17:15.942Z,5.23
2018-09-21T00:19:47.587Z,5.20
2018-09-21T00:22:18.093Z,5.47
2018-09-21T00:24:48.479Z,5.73
2018-09-21T00:27:18.582Z,5.10
2018-09-21T00:29:48.436Z,5.30
2018-09-21T00:32:18.310Z,5.77
2018-09-21T00:34:48.122Z,5.37
2018-09-21T00:37:18.227Z,5.60
2018-09-21T00:39:48.077Z,5.27
2018-09-21T00:42:20.679Z,5.47
2018-09-21T00:44:50.938Z,4.93
2018-09-21T00:47:21.326Z,5.60
2018-09-21T00:49:51.662Z,5.10
2018-09-21T00:52:22.019Z,5.27
2018-09-21T00:54:52.506Z,5.50
2018-09-21T00:57:23.135Z,5.00
2018-09-21T00:59:53.270Z,4.77
2018-09-21T01:02:23.098Z,5.57
2018-09-21T01:04:53.707Z,4.90
2018-09-21T01:07:24.175Z,5.03
2018-09-21T01:09:54.070Z,4.93
2018-09-21T01:12:24.583Z,5.43
2018-09-21T01:14:54.482Z,5.07
2018-09-21T01:17:24.562Z,5.03
2018-09-21T01:19:55.221Z,5.20
2018-09-21T01:22:25.322Z,5.23
2018-09-21T01:24:55.190Z,4.80
2018-09-21T01:27:25.733Z,4.60
2018-09-21T01:29:55.561Z,4.40
2018-09-21T01:32:25.723Z,4.40
2018-09-21T01:34:56.686Z,4.43
2018-09-21T01:37:26.925Z,4.17
2018-09-21T01:39:57.489Z,4.20
2018-09-21T01:42:28.017Z,4.57
2018-09-21T01:44:58.336Z,4.57
2018-09-21T01:47:28.171Z,4.07
2018-09-21T01:49:58.519Z,4.30
2018-09-21T01:52:28.601Z,4.07
2018-09-21T01:54:58.789Z,4.37
2018-09-21T01:57:28.827Z,4.13
2018-09-21T01:59:59.208Z,3.63
2018-09-21T02:02:29.569Z,4.10
2018-09-21T02:04:59.458Z,4.37
2018-09-21T02:07:29.339Z,3.90
2018-09-21T02:09:59.378Z,4.37
2018-09-21T02:12:29.686Z,4.20
2018-09-21T02:14:59.557Z,3.80
2018-09-21T02:17:29.658Z,3.60
2018-09-21T02:20:00.218Z,3.90
2018-09-21T02:22:30.573Z,4.00
2018-09-21T02:25:00.726Z,3.70
2018-09-21T02:27:30.802Z,3.90
2018-09-21T02:30:00.845Z,3.97
2018-09-21T02:32:30.919Z,3.50
2018-09-21T02:35:01.129Z,4.40
2018-09-21T02:37:31.710Z,4.00
2018-09-21T02:40:01.713Z,4.20
2018-09-21T02:42:31.530Z,4.00
2018-09-21T02:45:01.865Z,3.87
2018-09-21T02:47:31.722Z,3.70
2018-09-21T02:50:01.799Z,4.23
2018-09-21T02:52:32.045Z,3.97
2018-09-21T02:55:02.446Z,4.33
2018-09-21T02:57:32.943Z,4.20
2018-09-21T03:00:02.767Z,3.80
2018-09-21T03:02:32.719Z,4.10
2018-09-21T03:05:02.847Z,3.63
2018-09-21T03:07:33.177Z,3.60
2018-09-21T03:10:03.277Z,4.00
2018-09-21T03:12:34.011Z,3.90
2018-09-21T03:15:03.962Z,4.03
2018-09-21T03:17:35.406Z,3.70
2018-09-21T03:20:05.889Z,4.10
2018-09-21T03:22:35.924Z,3.87
2018-09-21T03:25:06.138Z,3.73
2018-09-21T03:27:36.007Z,3.80
2018-09-21T03:30:06.252Z,4.10
2018-09-21T03:32:36.581Z,4.10
2018-09-21T03:35:06.612Z,3.27
2018-09-21T03:37:36.784Z,3.80
2018-09-21T03:40:07.189Z,3.73
2018-09-21T03:42:37.506Z,3.87
2018-09-21T03:45:07.832Z,3.80
2018-09-21T03:47:38.355Z,4.50
2018-09-21T03:50:08.291Z,4.37
2018-09-21T03:52:38.145Z,3.77
2018-09-21T03:55:08.130Z,3.80
2018-09-21T03:57:38.038Z,3.90
2018-09-21T04:00:08.614Z,4.07
2018-09-21T04:02:39.251Z,4.03
2018-09-21T04:05:09.877Z,4.20
2018-09-21T04:07:40.053Z,4.47
2018-09-21T04:10:10.100Z,5.13
2018-09-21T04:12:40.460Z,4.43
2018-09-21T04:15:10.426Z,4.13
2018-09-21T04:17:40.475Z,4.83
2018-09-21T04:20:10.486Z,4.00
2018-09-21T04:22:41.002Z,5.03
2018-09-21T04:25:11.557Z,4.37
2018-09-21T04:27:50.634Z,4.60
2018-09-21T04:30:21.078Z,5.43
2018-09-21T04:32:51.098Z,4.13
2018-09-21T04:35:20.953Z,4.27
2018-09-21T04:37:51.710Z,4.53
2018-09-21T04:40:21.686Z,4.60
2018-09-21T04:42:51.742Z,4.63
2018-09-21T04:45:21.606Z,4.43
2018-09-21T04:47:51.502Z,4.27
2018-09-21T04:50:21.315Z,4.53
2018-09-21T04:52:51.490Z,4.30
2018-09-21T04:55:21.636Z,4.40
2018-09-21T04:57:51.484Z,4.83
2018-09-21T05:00:21.388Z,4.70
2018-09-21T05:02:51.271Z,4.13
2018-09-21T05:05:21.146Z,4.60
2018-09-21T05:07:51.006Z,10.10
2018-09-21T05:10:21.314Z,4.70
2018-09-21T05:12:51.489Z,4.60
2018-09-21T05:15:21.407Z,5.00
2018-09-21T05:17:51.824Z,5.13
2018-09-21T05:20:21.851Z,4.67
2018-09-21T05:22:51.831Z,4.67
2018-09-21T05:25:21.974Z,4.63
2018-09-21T05:27:52.076Z,4.87
2018-09-21T05:30:22.593Z,4.43
2018-09-21T05:32:52.579Z,4.43
2018-09-21T05:35:22.518Z,4.70
2018-09-21T05:37:52.728Z,4.80
2018-09-21T05:40:22.870Z,5.00
2018-09-21T05:42:52.808Z,4.67
2018-09-21T05:45:22.695Z,4.67
2018-09-21T05:47:53.170Z,4.80
2018-09-21T05:50:23.007Z,4.97
2018-09-21T05:52:53.154Z,4.93
2018-09-21T05:55:23.418Z,5.40
2018-09-21T05:57:53.446Z,5.23
2018-09-21T06:00:23.625Z,4.93
2018-09-21T06:02:53.534Z,4.87
2018-09-21T06:05:29.595Z,4.73
2018-09-21T06:08:01.223Z,4.70
2018-09-21T06:10:31.206Z,5.30
2018-09-21T06:13:01.126Z,5.00
2018-09-21T06:15:31.407Z,4.90
2018-09-21T06:18:01.266Z,5.10
2018-09-21T06:20:31.126Z,4.90
2018-09-21T06:23:01.042Z,5.23
2018-09-21T06:25:30.991Z,5.00
2018-09-21T06:28:00.858Z,4.93
2018-09-21T06:30:31.201Z,5.07
2018-09-21T06:33:01.443Z,5.23
2018-09-21T06:35:31.338Z,5.77
2018-09-21T06:39:08.271Z,5.10
2018-09-21T06:41:38.354Z,4.93
2018-09-21T06:44:09.158Z,4.80
2018-09-21T06:46:44.774Z,4.10
2018-09-21T06:49:15.114Z,4.53
2018-09-21T06:51:46.740Z,5.30
2018-09-21T06:54:17.649Z,4.83
2018-09-21T06:56:48.066Z,4.80
2018-09-21T06:59:18.426Z,5.20
2018-09-21T07:01:48.378Z,4.83
2018-09-21T07:04:18.721Z,5.10
2018-09-21T07:07:25.948Z,5.53
2018-09-21T07:10:33.832Z,5.00
2018-09-21T07:13:04.034Z,5.73
2018-09-21T07:15:43.004Z,5.17
2018-09-21T07:18:15.783Z,5.77
2018-09-21T07:20:48.313Z,5.43
2018-09-21T07:23:20.832Z,5.13
2018-09-21T07:25:51.130Z,5.27
2018-09-21T07:28:21.737Z,4.73
2018-09-21T07:30:53.143Z,5.00
2018-09-21T07:33:28.968Z,4.53
2018-09-21T07:36:05.512Z,4.67
2018-09-21T07:38:35.601Z,5.03
2018-09-21T07:41:08.273Z,4.63
2018-09-21T07:43:39.222Z,4.13
2018-09-21T07:46:09.136Z,5.00
2018-09-21T07:48:39.150Z,4.53
2018-09-21T07:51:09.321Z,4.60
2018-09-21T07:53:39.690Z,5.00
2018-09-21T07:56:09.547Z,4.73
2018-09-21T07:58:39.384Z,5.13
2018-09-21T08:01:09.258Z,4.83
2018-09-21T08:03:39.129Z,5.00
2018-09-21T08:06:09.029Z,4.63
2018-09-21T08:08:39.332Z,4.83
2018-09-21T08:11:09.197Z,4.97
2018-09-21T08:13:39.028Z,4.50
2018-09-21T08:16:08.868Z,4.60
2018-09-21T08:18:38.751Z,5.03
2018-09-21T08:21:09.079Z,4.47
2018-09-21T08:23:38.955Z,4.60
2018-09-21T08:26:08.811Z,4.80
2018-09-21T08:28:39.242Z,4.40
2018-09-21T08:31:09.081Z,4.40
2018-09-21T08:33:38.959Z,4.27
2018-09-21T08:36:09.295Z,4.83
2018-09-21T08:38:39.126Z,4.70
2018-09-21T08:41:08.969Z,4.60
2018-09-21T08:43:38.943Z,4.57
2018-09-21T08:46:08.754Z,4.90
2018-09-21T08:48:38.662Z,4.37
2018-09-21T08:51:08.581Z,4.77
2018-09-21T08:53:38.782Z,4.47
2018-09-21T08:56:08.710Z,4.37
2018-09-21T08:58:38.618Z,4.40
2018-09-21T09:01:09.074Z,4.30
2018-09-21T09:03:38.930Z,4.47
2018-09-21T09:06:08.873Z,4.40
2018-09-21T09:08:38.728Z,4.07
2018-09-21T09:11:08.939Z,4.10
2018-09-21T09:13:38.766Z,4.07
2018-09-21T09:16:08.582Z,5.23
2018-09-21T09:18:38.458Z,4.77
2018-09-21T09:21:08.581Z,4.97
2018-09-21T09:23:38.494Z,5.03
2018-09-21T09:26:08.726Z,5.40
2018-09-21T09:28:38.538Z,5.60
2018-09-21T09:31:08.419Z,5.20
2018-09-21T09:33:38.250Z,4.77
2018-09-21T09:36:08.342Z,4.70
2018-09-21T09:38:38.191Z,3.87
2018-09-21T09:41:08.414Z,3.93
2018-09-21T09:43:38.292Z,5.53
2018-09-21T09:46:08.455Z,3.60
2018-09-21T09:48:38.754Z,3.10
2018-09-21T09:51:08.668Z,2.90
2018-09-21T09:53:38.701Z,2.13
2018-09-21T09:56:09.046Z,2.00
2018-09-21T09:58:38.906Z,2.13
2018-09-21T10:01:09.030Z,2.23
2018-09-21T10:03:39.437Z,2.37
2018-09-21T10:06:09.269Z,2.57
2018-09-21T10:08:39.148Z,2.60
2018-09-21T10:11:09.041Z,2.50
2018-09-21T10:13:38.902Z,2.00
2018-09-21T10:16:08.851Z,2.30
2018-09-21T10:18:38.763Z,2.10
2018-09-21T10:21:08.634Z,2.00
2018-09-21T10:23:38.933Z,1.60
2018-09-21T10:26:08.921Z,1.83
2018-09-21T10:28:38.948Z,1.77
2018-09-21T10:31:09.181Z,1.70
2018-09-21T10:33:39.087Z,1.70
2018-09-21T10:36:08.976Z,1.90
2018-09-21T10:38:38.810Z,1.80
2018-09-21T10:41:08.680Z,2.40
2018-09-21T10:43:38.575Z,2.73
2018-09-21T10:46:08.431Z,3.30
2018-09-21T10:48:38.310Z,3.33
2018-09-21T10:51:08.461Z,3.30
2018-09-21T10:53:38.486Z,3.23
2018-09-21T10:56:08.379Z,3.27
2018-09-21T10:58:38.605Z,4.03
2018-09-21T11:01:08.525Z,3.50
2018-09-21T11:03:38.792Z,3.83
2018-09-21T11:06:08.741Z,3.60
2018-09-21T11:08:38.613Z,3.23
2018-09-21T11:11:08.498Z,3.93
2018-09-21T11:13:38.342Z,3.20
2018-09-21T11:16:08.217Z,4.10
2018-09-21T11:18:38.155Z,3.73
2018-09-21T11:21:08.033Z,3.70
2018-09-21T11:23:38.375Z,3.43
2018-09-21T11:26:08.278Z,3.00
2018-09-21T11:28:38.399Z,3.40
2018-09-21T11:31:08.577Z,3.63
2018-09-21T11:33:39.782Z,3.40
2018-09-21T11:36:09.865Z,3.50
2018-09-21T11:38:39.823Z,3.23
2018-09-21T11:41:11.511Z,2.87
2018-09-21T11:43:42.253Z,3.67
2018-09-21T11:46:12.193Z,3.40
2018-09-21T11:48:42.071Z,3.57
2018-09-21T11:51:11.985Z,3.20
2018-09-21T11:53:41.858Z,3.57
2018-09-21T11:56:11.721Z,3.93
2018-09-21T11:58:41.586Z,3.30
2018-09-21T12:01:11.521Z,3.20
2018-09-21T12:03:41.704Z,3.73
2018-09-21T12:06:11.531Z,3.27
2018-09-21T12:08:41.434Z,3.37
2018-09-21T12:11:11.352Z,3.73
2018-09-21T12:13:41.423Z,3.47
2018-09-21T12:16:11.819Z,3.67
2018-09-21T12:18:41.754Z,3.07
2018-09-21T12:21:12.186Z,4.03
2018-09-21T12:23:42.231Z,3.60
2018-09-21T12:26:12.282Z,3.50
2018-09-21T12:28:42.137Z,3.83
2018-09-21T12:31:12.508Z,3.30
2018-09-21T12:33:42.553Z,3.50
2018-09-21T12:36:12.451Z,3.47
2018-09-21T12:38:42.450Z,3.47
2018-09-21T12:41:12.663Z,3.10
2018-09-21T12:43:42.466Z,4.10
2018-09-21T12:46:15.870Z,3.90
2018-09-21T12:48:45.750Z,3.50
2018-09-21T12:51:15.627Z,3.97
2018-09-21T12:53:45.890Z,3.63
2018-09-21T12:56:15.819Z,3.77
2018-09-21T12:58:45.801Z,3.77
2018-09-21T13:01:15.718Z,3.40
2018-09-21T13:03:45.597Z,3.30
2018-09-21T13:06:15.995Z,3.23
2018-09-21T13:08:47.818Z,3.87
2018-09-21T13:11:17.747Z,3.07
2018-09-21T13:13:47.602Z,3.60
2018-09-21T13:16:17.474Z,3.37
2018-09-21T13:18:47.725Z,3.47
2018-09-21T13:21:17.859Z,2.93
2018-09-21T13:23:47.972Z,3.00
2018-09-21T13:26:18.379Z,3.10
2018-09-21T13:28:48.322Z,3.07
2018-09-21T13:31:18.222Z,2.83
2018-09-21T13:33:48.073Z,3.17
2018-09-21T13:36:17.926Z,2.90
2018-09-21T13:38:47.783Z,2.93
2018-09-21T13:41:17.659Z,2.50
2018-09-21T13:43:47.547Z,2.33
2018-09-21T13:46:17.705Z,2.70
2018-09-21T13:48:47.702Z,2.80
2018-09-21T13:51:17.551Z,2.47
2018-09-21T13:53:47.419Z,2.60
2018-09-21T13:56:17.345Z,2.20
2018-09-21T13:58:47.714Z,2.10
2018-09-21T14:01:17.627Z,2.07
2018-09-21T14:03:47.541Z,2.30
2018-09-21T14:06:17.423Z,1.93
2018-09-21T14:08:47.303Z,1.87
2018-09-21T14:11:52.333Z,1.93
2018-09-21T14:14:30.854Z,1.87
2018-09-21T14:17:01.918Z,1.63
2018-09-21T14:19:31.771Z,1.80
2018-09-21T14:22:01.668Z,2.03
2018-09-21T14:24:31.558Z,2.00
2018-09-21T14:27:01.401Z,2.00
2018-09-21T14:29:31.274Z,2.03
2018-09-21T14:32:01.103Z,2.10
2018-09-21T14:34:31.235Z,2.17
2018-09-21T14:37:01.073Z,2.40
2018-09-21T14:39:30.871Z,2.33
2018-09-21T14:42:01.144Z,2.43
2018-09-21T14:44:31.032Z,1.90
2018-09-21T14:47:00.870Z,2.13
2018-09-21T14:49:31.117Z,2.10
2018-09-21T14:52:01.048Z,2.10
2018-09-21T14:54:30.914Z,1.90
2018-09-21T14:57:01.062Z,2.20
2018-09-21T14:59:31.262Z,2.03
2018-09-21T15:02:01.115Z,1.87
2018-09-21T15:04:31.262Z,2.10
2018-09-21T15:07:01.441Z,2.00
2018-09-21T15:09:31.290Z,1.73
2018-09-21T15:12:01.106Z,1.93
2018-09-21T15:14:31.257Z,1.60
2018-09-21T15:17:01.072Z,1.70
2018-09-21T15:19:30.906Z,1.87
2018-09-21T15:22:01.170Z,2.07
2018-09-21T15:24:31.031Z,1.60
2018-09-21T15:27:00.834Z,1.73
2018-09-21T15:29:31.179Z,1.93
2018-09-21T15:32:01.412Z,1.60
2018-09-21T15:34:31.337Z,1.50
2018-09-21T15:37:01.648Z,1.70
2018-09-21T15:39:31.594Z,1.43
2018-09-21T15:42:01.434Z,1.60
2018-09-21T15:44:31.595Z,1.10
2018-09-21T15:47:01.494Z,1.30
2018-09-21T15:49:31.394Z,1.53
2018-09-21T15:52:01.697Z,1.10
2018-09-21T15:54:31.574Z,1.10
2018-09-21T15:57:01.414Z,1.30
2018-09-21T15:59:31.619Z,1.40
2018-09-21T16:02:01.465Z,1.50
2018-09-21T16:04:31.293Z,1.30
2018-09-21T16:07:01.727Z,1.60
2018-09-21T16:10:48.562Z,1.63
2018-09-21T16:13:18.981Z,1.80
2018-09-21T16:15:48.854Z,1.60
2018-09-21T16:18:18.834Z,1.73
2018-09-21T16:20:48.659Z,1.60
2018-09-21T16:23:18.489Z,1.73
2018-09-21T16:25:48.321Z,1.63
2018-09-21T16:28:18.545Z,1.97
2018-09-21T16:30:48.688Z,1.93
2018-09-21T16:33:18.555Z,1.63
2018-09-21T16:35:48.875Z,1.50
2018-09-21T16:38:18.795Z,1.90
2018-09-21T16:40:49.219Z,1.80
2018-09-21T16:43:19.698Z,1.50
2018-09-21T16:45:49.674Z,1.60
2018-09-21T16:48:19.502Z,1.50
2018-09-21T16:50:49.335Z,1.70
2018-09-21T16:53:19.204Z,2.00
2018-09-21T16:55:49.373Z,1.93
2018-09-21T16:58:19.237Z,2.37
2018-09-21T17:00:49.170Z,1.83
2018-09-21T17:03:19.337Z,1.77
2018-09-21T17:05:49.294Z,1.87
2018-09-21T17:08:19.442Z,2.40
2018-09-21T17:10:49.330Z,1.97
2018-09-21T17:13:19.145Z,1.93
2018-09-21T17:15:49.389Z,1.90
2018-09-21T17:18:19.274Z,2.00
2018-09-21T17:20:49.127Z,2.33
2018-09-21T17:23:19.538Z,2.07
2018-09-21T17:25:49.475Z,1.90
2018-09-21T17:28:19.893Z,1.93
2018-09-21T17:30:49.701Z,2.27
2018-09-21T17:33:19.514Z,1.90
2018-09-21T17:35:49.505Z,2.17
2018-09-21T17:38:19.572Z,2.40
2018-09-21T17:40:49.519Z,1.83
2018-09-21T17:43:20.745Z,2.30
2018-09-21T17:45:50.575Z,2.30
2018-09-21T17:48:20.430Z,2.10
2018-09-21T17:50:51.998Z,2.00
2018-09-21T17:53:21.906Z,1.87
2018-09-21T17:55:51.853Z,2.03
2018-09-21T17:58:21.934Z,2.13
2018-09-21T18:00:51.792Z,2.10
2018-09-21T18:03:21.630Z,1.93
2018-09-21T18:05:51.475Z,1.70
2018-09-21T18:08:21.319Z,2.10
2018-09-21T18:10:51.192Z,1.80
2018-09-21T18:13:21.066Z,2.00
2018-09-21T18:15:51.037Z,2.00
2018-09-21T18:18:20.958Z,2.00
2018-09-21T18:20:51.178Z,1.83
2018-09-21T18:23:21.028Z,2.00
2018-09-21T18:25:51.044Z,2.30
2018-09-21T18:28:21.570Z,2.00
2018-09-21T18:30:51.542Z,2.10
2018-09-21T18:33:21.406Z,2.13
2018-09-21T18:35:51.371Z,1.37
2018-09-21T18:38:21.201Z,1.60
2018-09-21T18:40:51.376Z,1.70
2018-09-21T18:43:21.196Z,1.50
2018-09-21T18:45:51.380Z,2.03
2018-09-21T18:48:21.509Z,1.80
2018-09-21T18:50:51.452Z,1.43
2018-09-21T18:53:21.283Z,1.90
2018-09-21T18:55:51.163Z,1.80
2018-09-21T18:58:21.014Z,1.87
2018-09-21T19:00:51.234Z,1.70
2018-09-21T19:03:21.599Z,1.50
2018-09-21T19:05:51.501Z,1.80
2018-09-21T19:08:21.716Z,1.43
2018-09-21T19:10:51.601Z,1.77
2018-09-21T19:13:21.461Z,1.63
2018-09-21T19:15:51.359Z,1.93
2018-09-21T19:18:21.158Z,1.80
2018-09-21T19:20:51.090Z,1.47
2018-09-21T19:23:21.278Z,1.50
2018-09-21T19:25:51.241Z,1.70
2018-09-21T19:28:21.130Z,1.67
2018-09-21T19:30:51.430Z,1.77
2018-09-21T19:33:21.586Z,1.70
2018-09-21T19:35:52.167Z,1.60
2018-09-21T19:38:22.403Z,1.70
2018-09-21T19:40:52.270Z,1.37
2018-09-21T19:43:22.532Z,1.33
2018-09-21T19:45:52.423Z,1.70
2018-09-21T19:48:22.391Z,1.57
2018-09-21T19:50:52.291Z,1.30
2018-09-21T19:53:22.442Z,1.30
2018-09-21T19:55:52.282Z,1.17
2018-09-21T19:58:22.501Z,1.00
2018-09-21T20:00:53.671Z,1.10
2018-09-21T20:03:23.814Z,1.00
2018-09-21T20:05:53.621Z,1.13
2018-09-21T20:08:23.901Z,1.13
2018-09-21T20:10:53.811Z,1.10
2018-09-21T20:13:23.646Z,1.10
2018-09-21T20:15:53.858Z,1.13
2018-09-21T20:18:23.873Z,1.53
2018-09-21T20:20:53.730Z,1.50
2018-09-21T20:23:23.905Z,1.20
2018-09-21T20:25:53.762Z,1.30
2018-09-21T20:28:23.694Z,1.20
2018-09-21T20:30:59.587Z,1.20
2018-09-21T20:33:32.262Z,1.40
2018-09-21T20:36:02.966Z,1.37
2018-09-21T20:38:34.414Z,1.40
2018-09-21T20:41:04.322Z,1.40
2018-09-21T20:43:34.209Z,1.20
2018-09-21T20:46:04.480Z,1.40
2018-09-21T20:48:34.901Z,1.30
2018-09-21T20:51:05.489Z,1.20
2018-09-21T20:53:35.963Z,1.50
2018-09-21T20:56:07.373Z,1.30
2018-09-21T20:58:37.345Z,1.30
2018-09-21T21:01:07.734Z,1.53
2018-09-21T21:03:38.472Z,1.40
2018-09-21T21:06:09.870Z,1.20
2018-09-21T21:08:40.487Z,1.50
2018-09-21T21:11:10.547Z,1.60
2018-09-21T21:13:40.601Z,1.40
2018-09-21T21:16:10.815Z,1.30
2018-09-21T21:18:40.635Z,1.40
2018-09-21T21:21:11.258Z,1.27
2018-09-21T21:23:41.074Z,1.30
2018-09-21T21:26:10.887Z,1.20
2018-09-21T21:28:41.515Z,1.23
2018-09-21T21:31:11.818Z,1.40
2018-09-21T21:33:41.926Z,1.43
2018-09-21T21:36:12.335Z,1.50
2018-09-21T21:38:42.488Z,1.50
2018-09-21T21:41:13.199Z,1.40
2018-09-21T21:43:43.598Z,1.30
2018-09-21T21:46:13.565Z,1.17
2018-09-21T21:48:44.196Z,1.30
2018-09-21T21:54:47.669Z,1.30
2018-09-21T21:57:18.156Z,1.30
2018-09-21T21:59:48.354Z,1.60
2018-09-21T22:02:18.627Z,1.40
2018-09-21T22:04:49.190Z,1.23
2018-09-21T22:07:19.334Z,1.30
2018-09-21T22:09:49.457Z,1.43
2018-09-21T22:12:24.486Z,1.40
2018-09-21T22:14:54.956Z,1.50
2018-09-21T22:17:25.210Z,1.50
2018-09-21T22:19:55.596Z,1.30
2018-09-21T22:22:25.890Z,1.40
2018-09-21T22:24:56.179Z,1.53
2018-09-21T22:27:26.670Z,1.60
2018-09-21T22:29:57.874Z,1.60
2018-09-21T22:32:28.191Z,1.40
2018-09-21T22:34:59.277Z,1.50
2018-09-21T22:37:29.669Z,1.40
2018-09-21T22:40:00.270Z,1.57
2018-09-21T22:42:31.670Z,1.47
2018-09-21T22:45:01.636Z,1.60
2018-09-21T22:47:31.797Z,1.30
2018-09-21T22:50:02.354Z,1.30
2018-09-21T22:52:32.912Z,1.40
2018-09-21T22:55:03.242Z,1.30
2018-09-21T22:57:33.547Z,1.90
2018-09-21T23:00:03.353Z,1.60
2018-09-21T23:02:33.857Z,1.60
2018-09-21T23:05:03.954Z,1.50
2018-09-21T23:07:34.214Z,1.80
2018-09-21T23:10:04.358Z,1.40
2018-09-21T23:12:34.389Z,1.80
2018-09-21T23:15:04.289Z,1.60
2018-09-21T23:17:34.362Z,1.70
2018-09-21T23:20:04.663Z,1.43
2018-09-21T23:22:34.800Z,1.57
2018-09-21T23:25:06.347Z,1.60
2018-09-21T23:27:36.660Z,1.70
2018-09-21T23:30:06.965Z,1.83
2018-09-21T23:32:37.501Z,1.80
2018-09-21T23:35:08.202Z,1.80
2018-09-21T23:37:38.335Z,1.60
2018-09-21T23:40:09.158Z,1.83
2018-09-21T23:42:39.252Z,1.70
2018-09-21T23:45:09.179Z,2.00
2018-09-21T23:47:39.665Z,2.20
2018-09-21T23:50:10.132Z,1.77
2018-09-21T23:52:40.353Z,1.80
2018-09-21T23:55:10.705Z,1.80
2018-09-21T23:57:40.545Z,2.10
